createdAt,value
2022-07-28T00:01:29.211Z,16.50
2022-07-28T00:03:59.850Z,16.50
2022-07-28T00:06:28.154Z,16.50
2022-07-28T00:08:56.552Z,16.40
2022-07-28T00:11:26.301Z,16.30
2022-07-28T00:13:54.455Z,16.30
2022-07-28T00:16:22.909Z,16.50
2022-07-28T00:18:51.069Z,16.40
2022-07-28T00:21:19.355Z,16.40
2022-07-28T00:23:47.586Z,16.20
2022-07-28T00:26:15.886Z,16.40
2022-07-28T00:28:45.367Z,16.40
2022-07-28T00:31:13.886Z,16.50
2022-07-28T00:33:42.805Z,16.50
2022-07-28T00:36:13.084Z,16.70
2022-07-28T00:38:44.005Z,16.60
2022-07-28T00:41:12.964Z,16.50
2022-07-28T00:43:42.333Z,16.60
2022-07-28T00:46:12.492Z,16.50
2022-07-28T00:48:42.074Z,16.50
2022-07-28T00:51:10.976Z,16.50
2022-07-28T00:53:39.675Z,16.50
2022-07-28T00:56:08.464Z,16.60
2022-07-28T00:58:37.740Z,16.60
2022-07-28T01:01:06.532Z,16.70
2022-07-28T01:03:38.793Z,16.50
2022-07-28T01:06:17.652Z,16.00
2022-07-28T01:08:58.106Z,16.00
2022-07-28T01:11:42.643Z,16.00
2022-07-28T01:14:18.086Z,16.10
2022-07-28T01:17:01.905Z,16.10
2022-07-28T01:19:42.137Z,16.00
2022-07-28T01:22:13.855Z,16.00
2022-07-28T01:24:55.931Z,16.00
2022-07-28T01:27:42.368Z,16.00
2022-07-28T01:30:34.973Z,16.00
2022-07-28T01:33:10.386Z,16.00
2022-07-28T01:35:55.235Z,15.90
2022-07-28T01:38:25.044Z,15.90
2022-07-28T01:40:55.668Z,15.80
2022-07-28T01:43:27.360Z,15.90
2022-07-28T01:45:58.583Z,16.10
2022-07-28T01:48:28.657Z,15.90
2022-07-28T01:50:58.311Z,15.90
2022-07-28T01:53:31.976Z,15.90
2022-07-28T01:56:07.061Z,15.90
2022-07-28T01:58:36.452Z,16.00
2022-07-28T02:01:08.308Z,16.00
2022-07-28T02:03:38.300Z,15.90
2022-07-28T02:06:07.582Z,16.00
2022-07-28T02:08:39.128Z,15.90
2022-07-28T02:11:25.351Z,15.90
2022-07-28T02:13:56.288Z,15.70
2022-07-28T02:16:27.573Z,15.70
2022-07-28T02:18:58.880Z,15.60
2022-07-28T02:21:28.406Z,15.60
2022-07-28T02:23:57.875Z,15.80
2022-07-28T02:26:30.047Z,16.00
2022-07-28T02:29:04.300Z,16.00
2022-07-28T02:31:40.509Z,16.10
2022-07-28T02:34:15.186Z,16.10
2022-07-28T02:36:52.087Z,16.10
2022-07-28T02:39:28.625Z,16.10
2022-07-28T02:42:01.537Z,16.10
2022-07-28T02:44:36.620Z,16.00
2022-07-28T02:47:09.240Z,16.00
2022-07-28T02:49:38.333Z,16.00
2022-07-28T02:52:08.777Z,16.00
2022-07-28T02:54:41.005Z,16.00
2022-07-28T02:57:10.564Z,15.90
2022-07-28T02:59:39.173Z,16.20
2022-07-28T03:02:10.135Z,15.90
2022-07-28T03:04:58.931Z,15.70
2022-07-28T03:07:28.043Z,15.60
2022-07-28T03:10:00.409Z,15.70
2022-07-28T03:12:29.223Z,15.70
2022-07-28T03:14:57.355Z,15.70
2022-07-28T03:17:27.282Z,15.70
2022-07-28T03:19:55.601Z,15.70
2022-07-28T03:22:23.959Z,15.70
2022-07-28T03:24:54.994Z,15.70
2022-07-28T03:27:30.396Z,15.70
2022-07-28T03:30:03.986Z,15.60
2022-07-28T03:32:38.022Z,15.50
2022-07-28T03:35:07.914Z,15.50
2022-07-28T03:37:41.687Z,15.40
2022-07-28T03:40:13.089Z,15.30
2022-07-28T03:42:43.579Z,15.30
2022-07-28T03:45:12.773Z,15.30
2022-07-28T03:47:50.984Z,15.40
2022-07-28T03:50:19.442Z,15.50
2022-07-28T03:52:47.607Z,15.60
2022-07-28T03:55:16.996Z,15.40
2022-07-28T03:57:45.200Z,15.40
2022-07-28T04:00:14.731Z,15.40
2022-07-28T04:02:44.673Z,15.60
2022-07-28T04:05:13.716Z,15.60
2022-07-28T04:07:46.094Z,15.70
2022-07-28T04:10:16.009Z,15.80
2022-07-28T04:12:51.685Z,15.90
2022-07-28T04:15:24.309Z,15.90
2022-07-28T04:17:56.704Z,15.90
2022-07-28T04:20:26.973Z,15.90
2022-07-28T04:22:56.837Z,15.90
2022-07-28T04:25:27.723Z,15.80
2022-07-28T04:27:59.457Z,15.70
2022-07-28T04:30:28.726Z,15.70
2022-07-28T04:32:58.326Z,15.70
2022-07-28T04:35:30.123Z,15.60
2022-07-28T04:37:59.363Z,15.70
2022-07-28T04:40:28.252Z,15.60
2022-07-28T04:42:56.917Z,15.60
2022-07-28T04:45:25.083Z,15.70
2022-07-28T04:47:53.314Z,15.80
2022-07-28T04:50:22.999Z,15.80
2022-07-28T04:52:58.983Z,15.90
2022-07-28T04:55:27.423Z,16.00
2022-07-28T04:57:55.610Z,16.10
2022-07-28T05:00:25.695Z,16.00
2022-07-28T05:02:53.980Z,16.20
2022-07-28T05:05:23.498Z,16.10
2022-07-28T05:07:51.918Z,16.10
2022-07-28T05:10:20.555Z,16.00
2022-07-28T05:12:49.295Z,16.00
2022-07-28T05:15:17.630Z,16.10
2022-07-28T05:17:46.052Z,15.90
2022-07-28T05:20:15.520Z,16.00
2022-07-28T05:22:46.549Z,16.10
2022-07-28T05:25:19.509Z,16.20
2022-07-28T05:27:48.484Z,16.20
2022-07-28T05:30:19.105Z,16.10
2022-07-28T05:32:48.978Z,16.10
2022-07-28T05:35:17.255Z,16.20
2022-07-28T05:37:46.758Z,16.30
2022-07-28T05:40:18.289Z,16.30
2022-07-28T05:42:47.866Z,16.30
2022-07-28T05:45:17.779Z,16.30
2022-07-28T05:47:48.228Z,16.40
2022-07-28T05:50:17.696Z,16.40
2022-07-28T05:52:49.191Z,16.50
2022-07-28T05:55:17.784Z,16.50
2022-07-28T05:57:47.224Z,16.70
2022-07-28T06:00:17.964Z,16.70
2022-07-28T06:02:47.430Z,16.80
2022-07-28T06:05:18.119Z,16.90
2022-07-28T06:07:55.705Z,17.20
2022-07-28T06:10:25.645Z,17.50
2022-07-28T06:12:56.083Z,17.80
2022-07-28T06:15:25.948Z,18.10
2022-07-28T06:17:56.684Z,18.40
2022-07-28T06:20:25.898Z,18.60
2022-07-28T06:22:56.013Z,18.70
2022-07-28T06:25:26.133Z,19.20
2022-07-28T06:27:56.597Z,19.60
2022-07-28T06:30:25.225Z,19.60
2022-07-28T06:32:53.799Z,19.60
2022-07-28T06:35:25.101Z,19.70
2022-07-28T06:37:55.291Z,19.90
2022-07-28T06:40:23.885Z,20.00
2022-07-28T06:42:52.795Z,20.20
2022-07-28T06:45:22.826Z,20.20
2022-07-28T06:47:52.123Z,20.20
2022-07-28T06:50:25.503Z,20.30
2022-07-28T06:53:00.582Z,20.50
2022-07-28T06:55:35.416Z,20.40
2022-07-28T06:58:05.070Z,20.60
2022-07-28T07:00:34.716Z,20.80
2022-07-28T07:03:03.057Z,20.50
2022-07-28T07:05:32.463Z,20.40
2022-07-28T07:08:02.365Z,20.40
2022-07-28T07:10:30.622Z,20.30
2022-07-28T07:13:00.647Z,20.40
2022-07-28T07:15:29.002Z,20.60
2022-07-28T07:17:57.241Z,21.00
2022-07-28T07:20:25.538Z,20.70
2022-07-28T07:22:56.558Z,20.70
2022-07-28T07:25:26.331Z,20.70
2022-07-28T07:27:54.768Z,21.00
2022-07-28T07:30:23.054Z,21.10
2022-07-28T07:32:51.346Z,21.30
2022-07-28T07:35:20.263Z,21.30
2022-07-28T07:37:49.585Z,21.10
2022-07-28T07:40:17.745Z,21.10
2022-07-28T07:42:47.331Z,21.10
2022-07-28T07:45:15.604Z,21.10
2022-07-28T07:47:43.844Z,20.90
2022-07-28T07:50:12.393Z,20.70
2022-07-28T07:52:40.652Z,20.90
2022-07-28T07:55:12.093Z,21.00
2022-07-28T07:57:40.367Z,21.10
2022-07-28T08:00:28.305Z,21.50
2022-07-28T08:02:58.031Z,21.50
2022-07-28T08:05:35.674Z,21.50
2022-07-28T08:08:06.138Z,21.60
2022-07-28T08:10:34.843Z,21.70
2022-07-28T08:13:04.653Z,21.40
2022-07-28T08:15:35.005Z,21.40
2022-07-28T08:18:03.697Z,21.40
2022-07-28T08:20:31.952Z,21.50
2022-07-28T08:23:02.353Z,21.40
2022-07-28T08:25:30.566Z,21.40
2022-07-28T08:28:04.270Z,21.60
2022-07-28T08:30:36.104Z,21.50
2022-07-28T08:33:04.327Z,21.50
2022-07-28T08:35:35.329Z,21.60
2022-07-28T08:38:05.370Z,21.60
2022-07-28T08:40:34.162Z,21.90
2022-07-28T08:43:10.332Z,21.90
2022-07-28T08:45:42.398Z,21.80
2022-07-28T08:48:15.498Z,21.80
2022-07-28T08:50:47.381Z,21.80
2022-07-28T08:53:16.200Z,22.00
2022-07-28T08:55:45.327Z,22.40
2022-07-28T08:58:14.507Z,22.50
2022-07-28T09:00:44.279Z,22.60
2022-07-28T09:03:14.219Z,22.50
2022-07-28T09:05:44.685Z,22.60
2022-07-28T09:08:22.389Z,22.60
2022-07-28T09:10:51.482Z,22.70
2022-07-28T09:13:20.217Z,22.90
2022-07-28T09:15:50.022Z,23.00
2022-07-28T09:18:21.168Z,23.00
2022-07-28T09:20:50.660Z,22.80
2022-07-28T09:23:43.532Z,22.90
2022-07-28T09:26:12.870Z,22.90
2022-07-28T09:28:55.232Z,23.10
2022-07-28T09:31:27.334Z,23.30
2022-07-28T09:33:58.035Z,23.50
2022-07-28T09:36:26.473Z,23.70
2022-07-28T09:38:56.675Z,23.60
2022-07-28T09:41:25.595Z,23.60
2022-07-28T09:43:55.796Z,23.70
2022-07-28T09:46:29.150Z,23.80
2022-07-28T09:49:00.435Z,23.80
2022-07-28T09:51:30.860Z,23.80
2022-07-28T09:54:11.343Z,23.70
2022-07-28T09:56:41.003Z,23.80
2022-07-28T09:59:10.012Z,23.90
2022-07-28T10:01:55.282Z,24.10
2022-07-28T10:04:32.974Z,24.30
2022-07-28T10:07:09.991Z,24.00
2022-07-28T10:09:40.034Z,23.90
2022-07-28T10:12:19.859Z,24.00
2022-07-28T10:14:51.748Z,24.20
2022-07-28T10:17:29.726Z,24.30
2022-07-28T10:19:59.451Z,24.20
2022-07-28T10:22:33.219Z,24.30
2022-07-28T10:25:04.538Z,24.60
2022-07-28T10:27:33.905Z,24.70
2022-07-28T10:30:04.394Z,24.80
2022-07-28T10:32:39.525Z,24.80
2022-07-28T10:35:11.775Z,25.00
2022-07-28T10:37:47.956Z,25.00
2022-07-28T10:40:19.583Z,25.10
2022-07-28T10:42:48.315Z,24.80
2022-07-28T10:45:17.689Z,25.10
2022-07-28T10:47:48.022Z,25.10
2022-07-28T10:50:17.363Z,24.90
2022-07-28T10:55:31.626Z,24.80
2022-07-28T10:58:11.873Z,25.10
2022-07-28T11:00:59.877Z,25.30
2022-07-28T11:03:44.749Z,25.60
2022-07-28T11:06:27.780Z,25.60
2022-07-28T11:08:56.799Z,25.60
2022-07-28T11:11:44.567Z,25.50
2022-07-28T11:14:39.896Z,25.50
2022-07-28T11:17:23.955Z,26.30
2022-07-28T11:22:46.976Z,26.20
2022-07-28T11:25:20.749Z,26.00
2022-07-28T11:28:08.433Z,25.80
2022-07-28T11:30:58.186Z,26.20
2022-07-28T11:33:59.528Z,26.20
2022-07-28T11:37:04.731Z,26.40
2022-07-28T11:39:42.986Z,26.30
2022-07-28T11:42:29.346Z,26.40
2022-07-28T11:45:26.478Z,26.60
2022-07-28T11:48:17.430Z,26.50
2022-07-28T11:51:10.374Z,26.70
2022-07-28T11:53:42.489Z,26.70
2022-07-28T11:56:15.820Z,26.80
2022-07-28T11:58:44.833Z,26.80
2022-07-28T12:01:17.664Z,26.90
2022-07-28T12:03:50.202Z,26.90
2022-07-28T12:06:28.880Z,27.00
2022-07-28T12:09:00.772Z,27.00
2022-07-28T12:11:32.875Z,26.90
2022-07-28T12:14:04.871Z,26.60
2022-07-28T12:16:36.177Z,26.30
2022-07-28T12:19:06.645Z,26.30
2022-07-28T12:24:21.407Z,26.70
2022-07-28T12:26:50.664Z,26.50
2022-07-28T12:29:20.724Z,26.50
2022-07-28T12:31:55.447Z,26.80
2022-07-28T12:34:29.200Z,27.00
2022-07-28T12:37:04.829Z,27.10
2022-07-28T12:39:38.544Z,26.80
2022-07-28T12:42:08.503Z,26.90
2022-07-28T12:44:38.623Z,27.00
2022-07-28T12:47:09.191Z,27.50
2022-07-28T12:49:39.095Z,27.50
2022-07-28T12:52:26.073Z,27.60
2022-07-28T12:55:01.210Z,26.80
2022-07-28T12:57:48.065Z,26.50
2022-07-28T13:00:20.429Z,26.50
2022-07-28T13:02:49.773Z,26.50
2022-07-28T13:05:32.478Z,26.60
2022-07-28T13:08:03.288Z,26.60
2022-07-28T13:10:34.851Z,26.70
2022-07-28T13:13:06.357Z,26.60
2022-07-28T13:15:40.939Z,26.50
2022-07-28T13:18:09.369Z,26.60
2022-07-28T13:20:50.098Z,26.70
2022-07-28T13:23:20.913Z,26.90
2022-07-28T13:25:55.160Z,26.90
2022-07-28T13:28:27.174Z,26.80
2022-07-28T13:30:56.198Z,26.80
2022-07-28T13:33:26.803Z,27.10
2022-07-28T13:35:56.552Z,27.30
2022-07-28T13:38:25.358Z,27.30
2022-07-28T13:43:24.056Z,27.20
2022-07-28T13:46:05.801Z,26.60
2022-07-28T13:48:36.277Z,26.60
2022-07-28T13:51:30.182Z,26.90
2022-07-28T13:54:03.340Z,27.00
2022-07-28T13:56:33.392Z,26.90
2022-07-28T13:59:02.715Z,27.00
2022-07-28T14:01:31.613Z,27.10
2022-07-28T14:04:06.193Z,25.30
2022-07-28T14:06:35.278Z,27.30
2022-07-28T14:09:04.765Z,27.30
2022-07-28T14:11:36.448Z,27.30
2022-07-28T14:14:05.639Z,27.10
2022-07-28T14:16:34.602Z,27.00
2022-07-28T14:19:02.990Z,27.00
2022-07-28T14:21:31.831Z,26.90
2022-07-28T14:24:02.149Z,27.00
2022-07-28T14:26:35.849Z,27.10
2022-07-28T14:29:11.644Z,27.10
2022-07-28T14:31:40.336Z,27.00
2022-07-28T14:34:09.446Z,27.00
2022-07-28T14:36:38.150Z,27.10
2022-07-28T14:39:12.111Z,27.10
2022-07-28T14:41:42.653Z,26.90
2022-07-28T14:44:15.384Z,26.90
2022-07-28T14:46:46.335Z,26.90
2022-07-28T14:49:14.951Z,26.80
2022-07-28T14:51:44.915Z,26.70
2022-07-28T14:54:13.748Z,26.60
2022-07-28T14:56:42.267Z,26.60
2022-07-28T14:59:11.954Z,26.60
2022-07-28T15:01:40.757Z,26.60
2022-07-28T15:04:10.142Z,26.70
2022-07-28T15:06:41.093Z,26.80
2022-07-28T15:09:09.668Z,27.10
2022-07-28T15:11:39.977Z,27.20
2022-07-28T15:14:08.917Z,27.10
2022-07-28T15:16:40.037Z,27.20
2022-07-28T15:19:09.621Z,27.20
2022-07-28T15:21:40.609Z,27.20
2022-07-28T15:24:13.269Z,27.20
2022-07-28T15:26:42.223Z,27.30
2022-07-28T15:29:10.569Z,27.00
2022-07-28T15:31:45.594Z,27.00
2022-07-28T15:34:17.270Z,27.10
2022-07-28T15:36:46.186Z,27.00
2022-07-28T15:41:45.752Z,27.00
2022-07-28T15:44:17.204Z,26.90
2022-07-28T15:46:55.603Z,26.80
2022-07-28T15:49:23.890Z,26.80
2022-07-28T15:54:21.047Z,26.80
2022-07-28T15:56:51.949Z,26.70
2022-07-28T15:59:20.333Z,26.70
2022-07-28T16:01:48.679Z,26.60
2022-07-28T16:04:20.705Z,26.50
2022-07-28T16:07:06.856Z,26.60
2022-07-28T16:09:46.610Z,26.70
2022-07-28T16:12:15.432Z,26.70
2022-07-28T16:14:44.194Z,26.80
2022-07-28T16:17:13.117Z,26.90
2022-07-28T16:19:49.412Z,26.80
2022-07-28T16:22:18.924Z,26.80
2022-07-28T16:24:52.976Z,26.70
2022-07-28T16:27:26.439Z,26.80
2022-07-28T16:29:54.933Z,26.60
2022-07-28T16:32:23.891Z,26.60
2022-07-28T16:34:54.028Z,26.60
2022-07-28T16:37:22.825Z,26.70
2022-07-28T16:39:51.196Z,26.60
2022-07-28T16:42:19.504Z,26.50
2022-07-28T16:44:47.865Z,26.40
2022-07-28T16:47:16.873Z,26.40
2022-07-28T16:49:46.195Z,26.50
2022-07-28T16:52:41.763Z,26.50
2022-07-28T16:55:15.977Z,26.40
2022-07-28T16:57:46.196Z,26.40
2022-07-28T17:00:20.359Z,26.40
2022-07-28T17:05:17.541Z,26.40
2022-07-28T17:07:47.518Z,26.40
2022-07-28T17:10:20.329Z,26.30
2022-07-28T17:12:50.515Z,26.30
2022-07-28T17:15:21.849Z,26.30
2022-07-28T17:17:51.479Z,26.20
2022-07-28T17:20:20.677Z,26.20
2022-07-28T17:22:53.166Z,26.10
2022-07-28T17:28:10.550Z,26.20
2022-07-28T17:30:40.684Z,26.20
2022-07-28T17:33:09.268Z,26.20
2022-07-28T17:35:40.337Z,26.30
2022-07-28T17:38:18.229Z,26.20
2022-07-28T17:40:46.502Z,26.30
2022-07-28T17:43:16.090Z,26.30
2022-07-28T17:45:45.590Z,26.30
2022-07-28T17:48:13.846Z,26.30
2022-07-28T17:50:43.464Z,26.30
2022-07-28T17:53:16.025Z,26.30
2022-07-28T17:56:00.521Z,26.30
2022-07-28T17:58:32.712Z,26.20
2022-07-28T18:01:10.708Z,26.20
2022-07-28T18:03:58.692Z,26.00
2022-07-28T18:06:35.565Z,26.00
2022-07-28T18:09:08.712Z,26.00
2022-07-28T18:11:55.458Z,26.00
2022-07-28T18:14:27.787Z,26.00
2022-07-28T18:16:56.554Z,26.00
2022-07-28T18:19:25.089Z,26.00
2022-07-28T18:21:56.623Z,26.00
2022-07-28T18:24:27.094Z,25.90
2022-07-28T18:26:57.938Z,25.90
2022-07-28T18:29:38.314Z,25.80
2022-07-28T18:32:09.977Z,25.80
2022-07-28T18:34:39.192Z,25.80
2022-07-28T18:37:07.529Z,25.80
2022-07-28T18:39:37.118Z,25.90
2022-07-28T18:42:05.800Z,25.90
2022-07-28T18:44:34.241Z,25.90
2022-07-28T18:47:02.691Z,25.90
2022-07-28T18:49:37.130Z,25.70
2022-07-28T18:52:31.680Z,25.70
2022-07-28T18:55:02.547Z,25.40
2022-07-28T18:57:31.418Z,25.20
2022-07-28T18:59:59.972Z,25.20
2022-07-28T19:02:28.502Z,25.20
2022-07-28T19:04:56.758Z,25.10
2022-07-28T19:07:25.193Z,25.10
2022-07-28T19:09:54.491Z,24.90
2022-07-28T19:12:26.895Z,24.80
2022-07-28T19:14:55.302Z,24.60
2022-07-28T19:19:56.245Z,24.60
2022-07-28T19:22:25.583Z,24.50
2022-07-28T19:27:23.998Z,24.50
2022-07-28T19:29:55.135Z,24.50
2022-07-28T19:32:23.819Z,24.50
2022-07-28T19:34:52.622Z,24.50
2022-07-28T19:37:22.409Z,24.60
2022-07-28T19:39:50.788Z,24.60
2022-07-28T19:42:19.286Z,24.50
2022-07-28T19:44:55.852Z,24.40
2022-07-28T19:49:53.700Z,24.30
2022-07-28T19:52:23.941Z,24.20
2022-07-28T19:54:52.570Z,24.10
2022-07-28T19:59:54.778Z,24.10
2022-07-28T20:02:23.554Z,24.10
2022-07-28T20:04:54.415Z,23.90
2022-07-28T20:07:25.539Z,24.10
2022-07-28T20:09:54.192Z,24.10
2022-07-28T20:12:25.995Z,24.10
2022-07-28T20:14:56.083Z,24.10
2022-07-28T20:17:37.292Z,24.10
2022-07-28T20:20:09.783Z,24.10
2022-07-28T20:22:41.140Z,24.10
2022-07-28T20:25:11.392Z,24.00
2022-07-28T20:27:41.197Z,23.90
2022-07-28T20:30:15.525Z,23.80
2022-07-28T20:32:45.146Z,23.80
2022-07-28T20:35:14.165Z,23.70
2022-07-28T20:37:42.661Z,23.50
2022-07-28T20:40:12.148Z,23.50
2022-07-28T20:42:45.272Z,23.40
2022-07-28T20:45:17.419Z,23.20
2022-07-28T20:47:46.114Z,23.00
2022-07-28T20:50:15.752Z,22.90
2022-07-28T20:52:44.596Z,22.80
2022-07-28T20:55:13.208Z,22.80
2022-07-28T20:57:53.734Z,22.80
2022-07-28T21:00:25.178Z,22.70
2022-07-28T21:02:53.641Z,22.70
2022-07-28T21:05:35.040Z,22.70
2022-07-28T21:08:16.126Z,22.70
2022-07-28T21:10:48.460Z,22.70
2022-07-28T21:13:17.554Z,22.70
2022-07-28T21:15:48.016Z,22.70
2022-07-28T21:18:17.558Z,22.60
2022-07-28T21:20:45.954Z,22.60
2022-07-28T21:23:14.398Z,22.60
2022-07-28T21:25:45.133Z,22.50
2022-07-28T21:28:31.797Z,22.50
2022-07-28T21:31:01.711Z,22.50
2022-07-28T21:33:30.205Z,22.50
2022-07-28T21:35:58.430Z,22.50
2022-07-28T21:38:27.826Z,22.40
2022-07-28T21:40:57.243Z,22.30
2022-07-28T21:43:25.614Z,22.20
2022-07-28T21:45:53.903Z,22.20
2022-07-28T21:48:25.039Z,22.20
2022-07-28T21:50:53.798Z,22.10
2022-07-28T21:53:24.667Z,22.00
2022-07-28T21:55:53.846Z,22.00
2022-07-28T21:58:25.170Z,22.00
2022-07-28T22:00:53.492Z,21.90
2022-07-28T22:03:25.273Z,21.80
2022-07-28T22:05:53.635Z,21.80
2022-07-28T22:08:24.496Z,21.70
2022-07-28T22:10:52.914Z,21.70
2022-07-28T22:13:21.091Z,21.80
2022-07-28T22:15:49.609Z,21.70
2022-07-28T22:18:17.884Z,21.70
2022-07-28T22:20:47.715Z,21.80
2022-07-28T22:23:29.120Z,21.80
2022-07-28T22:25:58.553Z,21.80
2022-07-28T22:28:30.590Z,21.80
2022-07-28T22:31:08.649Z,21.80
2022-07-28T22:33:42.479Z,21.90
2022-07-28T22:36:12.183Z,21.80
2022-07-28T22:38:40.606Z,21.80
2022-07-28T22:41:09.693Z,21.80
2022-07-28T22:43:38.652Z,21.90
2022-07-28T22:46:06.933Z,22.10
2022-07-28T22:48:35.369Z,22.20
2022-07-28T22:51:03.687Z,22.30
2022-07-28T22:53:33.353Z,22.30
2022-07-28T22:56:05.170Z,22.30
2022-07-28T22:58:33.590Z,22.40
2022-07-28T23:01:03.928Z,22.30
2022-07-28T23:03:34.932Z,22.30
2022-07-28T23:06:06.899Z,22.40
2022-07-28T23:08:36.583Z,22.40
2022-07-28T23:11:07.065Z,22.40
2022-07-28T23:13:35.421Z,22.50
2022-07-28T23:16:03.939Z,22.60
2022-07-28T23:18:32.287Z,22.50
2022-07-28T23:21:00.959Z,21.60
2022-07-28T23:23:32.244Z,20.80
2022-07-28T23:26:02.644Z,20.50
2022-07-28T23:28:33.446Z,20.40
2022-07-28T23:31:01.876Z,20.50
2022-07-28T23:33:55.195Z,20.60
2022-07-28T23:36:26.638Z,20.80
2022-07-28T23:38:56.402Z,20.90
2022-07-28T23:41:28.410Z,20.80
2022-07-28T23:43:57.011Z,20.70
2022-07-28T23:46:25.240Z,20.70
2022-07-28T23:48:53.565Z,20.70
2022-07-28T23:51:47.179Z,20.50
2022-07-28T23:54:14.528Z,20.20
2022-07-28T23:56:48.366Z,20.10
2022-07-28T23:59:16.777Z,20.00
